createdAt,value
2018-09-23T00:01:43.873Z,93.60
2018-09-23T00:04:12.116Z,94.00
2018-09-23T00:06:40.313Z,94.30
2018-09-23T00:09:10.075Z,94.50
2018-09-23T00:11:39.817Z,94.30
2018-09-23T00:14:09.965Z,94.20
2018-09-23T00:16:38.229Z,94.00
2018-09-23T00:19:06.707Z,94.20
2018-09-23T00:21:34.978Z,94.00
2018-09-23T00:24:03.283Z,94.40
2018-09-23T00:26:31.551Z,94.50
2018-09-23T00:28:59.760Z,94.50
2018-09-23T00:31:28.344Z,94.50
2018-09-23T00:33:56.656Z,94.60
2018-09-23T00:36:25.682Z,94.60
2018-09-23T00:38:53.928Z,94.70
2018-09-23T00:41:22.178Z,95.20
2018-09-23T00:43:50.399Z,94.90
2018-09-23T00:46:18.624Z,95.20
2018-09-23T00:48:46.881Z,94.80
2018-09-23T00:51:15.088Z,94.90
2018-09-23T00:53:43.485Z,95.00
2018-09-23T00:56:11.927Z,95.20
2018-09-23T00:58:40.339Z,95.50
2018-09-23T01:01:08.825Z,95.40
2018-09-23T01:03:37.061Z,94.70
2018-09-23T01:06:05.275Z,94.90
2018-09-23T01:08:33.544Z,95.10
2018-09-23T01:11:01.783Z,94.90
2018-09-23T01:13:29.992Z,95.10
2018-09-23T01:15:59.597Z,95.10
2018-09-23T01:18:27.824Z,95.20
2018-09-23T01:20:56.109Z,95.40
2018-09-23T01:23:24.409Z,95.30
2018-09-23T01:25:52.622Z,95.20
2018-09-23T01:28:20.964Z,95.20
2018-09-23T01:30:49.177Z,95.40
2018-09-23T01:33:17.404Z,95.40
2018-09-23T01:35:45.738Z,95.10
2018-09-23T01:38:13.962Z,95.40
2018-09-23T01:40:42.285Z,95.20
2018-09-23T01:43:10.471Z,95.20
2018-09-23T01:45:38.728Z,95.20
2018-09-23T01:48:06.964Z,95.10
2018-09-23T01:50:35.191Z,95.30
2018-09-23T01:53:03.495Z,95.60
2018-09-23T01:55:32.698Z,95.70
2018-09-23T01:58:00.957Z,95.70
2018-09-23T02:00:29.098Z,95.50
2018-09-23T02:02:57.301Z,95.10
2018-09-23T02:05:25.534Z,95.00
2018-09-23T02:07:53.907Z,95.30
2018-09-23T02:10:22.167Z,95.30
2018-09-23T02:12:50.423Z,95.30
2018-09-23T02:15:18.666Z,95.30
2018-09-23T02:17:54.618Z,95.50
2018-09-23T02:20:23.057Z,95.30
2018-09-23T02:22:51.274Z,95.30
2018-09-23T02:25:19.490Z,95.20
2018-09-23T02:27:47.714Z,95.10
2018-09-23T02:30:15.957Z,95.00
2018-09-23T02:32:44.693Z,95.10
2018-09-23T02:35:12.968Z,94.90
2018-09-23T02:37:41.214Z,94.90
2018-09-23T02:40:09.591Z,95.10
2018-09-23T02:42:37.835Z,95.00
2018-09-23T02:45:07.647Z,95.10
2018-09-23T02:47:36.246Z,95.20
2018-09-23T02:50:04.416Z,95.00
2018-09-23T02:52:32.804Z,95.00
2018-09-23T02:55:01.110Z,95.10
2018-09-23T02:57:29.434Z,95.10
2018-09-23T02:59:57.643Z,95.20
2018-09-23T03:02:27.370Z,95.10
2018-09-23T03:04:55.695Z,95.00
2018-09-23T03:07:23.898Z,95.10
2018-09-23T03:09:52.512Z,95.40
2018-09-23T03:12:21.058Z,95.40
2018-09-23T03:14:49.324Z,95.20
2018-09-23T03:17:17.628Z,95.00
2018-09-23T03:19:45.927Z,95.10
2018-09-23T03:22:14.339Z,95.20
2018-09-23T03:24:42.520Z,95.40
2018-09-23T03:27:10.755Z,95.50
2018-09-23T03:29:38.941Z,95.40
2018-09-23T03:32:07.174Z,95.40
2018-09-23T03:34:35.629Z,95.60
2018-09-23T03:37:03.875Z,95.40
2018-09-23T03:39:34.951Z,95.70
2018-09-23T03:43:51.000Z,95.90
2018-09-23T03:46:19.288Z,95.70
2018-09-23T03:48:47.456Z,95.90
2018-09-23T03:51:15.693Z,96.10
2018-09-23T03:53:43.935Z,96.00
2018-09-23T03:56:13.475Z,96.10
2018-09-23T03:58:41.693Z,96.20
2018-09-23T04:01:09.966Z,96.20
2018-09-23T04:03:38.233Z,96.60
2018-09-23T04:06:06.496Z,96.90
2018-09-23T04:08:34.776Z,96.50
2018-09-23T04:11:02.998Z,96.60
2018-09-23T04:13:31.254Z,96.60
2018-09-23T04:15:59.472Z,96.60
2018-09-23T04:18:27.667Z,96.70
2018-09-23T04:20:55.901Z,97.00
2018-09-23T04:23:24.082Z,96.90
2018-09-23T04:25:52.362Z,96.60
2018-09-23T04:28:20.565Z,96.40
2018-09-23T04:30:48.852Z,96.40
2018-09-23T04:33:17.217Z,96.40
2018-09-23T04:35:45.700Z,96.60
2018-09-23T04:38:13.916Z,96.90
2018-09-23T04:40:42.288Z,96.90
2018-09-23T04:43:10.579Z,96.80
2018-09-23T04:45:38.864Z,96.80
2018-09-23T04:48:07.274Z,96.90
2018-09-23T04:50:35.567Z,96.80
2018-09-23T04:53:03.785Z,96.90
2018-09-23T04:55:32.023Z,96.80
2018-09-23T04:58:00.388Z,97.20
2018-09-23T05:00:28.596Z,97.00
2018-09-23T05:02:56.857Z,96.70
2018-09-23T05:05:25.064Z,96.90
2018-09-23T05:07:53.319Z,96.90
2018-09-23T05:10:21.728Z,97.00
2018-09-23T05:12:49.956Z,97.40
2018-09-23T05:20:10.999Z,96.50
2018-09-23T05:22:39.293Z,96.90
2018-09-23T05:25:07.521Z,97.10
2018-09-23T05:27:35.779Z,97.10
2018-09-23T05:30:04.157Z,97.40
2018-09-23T05:32:33.309Z,97.50
2018-09-23T05:35:01.647Z,97.40
2018-09-23T05:37:29.854Z,97.50
2018-09-23T05:39:58.205Z,97.30
2018-09-23T05:42:26.684Z,97.30
2018-09-23T05:44:54.961Z,97.50
2018-09-23T05:47:23.308Z,97.40
2018-09-23T05:49:51.632Z,97.30
2018-09-23T05:52:19.975Z,97.20
2018-09-23T05:54:48.342Z,97.50
2018-09-23T05:57:16.697Z,97.10
2018-09-23T05:59:45.047Z,97.20
2018-09-23T06:02:13.562Z,97.10
2018-09-23T06:04:41.975Z,97.20
2018-09-23T06:07:10.342Z,97.20
2018-09-23T06:09:38.616Z,97.40
2018-09-23T06:12:06.813Z,97.50
2018-09-23T06:14:35.130Z,97.40
2018-09-23T06:17:03.313Z,97.60
2018-09-23T06:19:31.576Z,97.90
2018-09-23T06:21:59.814Z,97.80
2018-09-23T06:24:28.401Z,97.90
2018-09-23T06:26:56.645Z,97.60
2018-09-23T06:34:17.695Z,97.00
2018-09-23T06:36:46.034Z,97.50
2018-09-23T06:39:14.250Z,97.60
2018-09-23T06:41:42.538Z,97.30
2018-09-23T06:44:10.797Z,97.50
2018-09-23T06:46:39.027Z,97.40
2018-09-23T06:49:07.333Z,97.30
2018-09-23T06:51:35.558Z,97.20
2018-09-23T06:54:03.807Z,97.20
2018-09-23T06:56:31.979Z,96.90
2018-09-23T06:59:00.212Z,97.10
2018-09-23T07:01:28.423Z,97.10
2018-09-23T07:03:58.265Z,97.00
2018-09-23T07:06:26.515Z,96.90
2018-09-23T07:08:54.699Z,97.00
2018-09-23T07:11:22.938Z,96.90
2018-09-23T07:13:51.320Z,96.90
2018-09-23T07:16:19.620Z,96.50
2018-09-23T07:18:47.836Z,97.00
2018-09-23T07:21:16.070Z,97.00
2018-09-23T07:23:44.512Z,96.80
2018-09-23T07:26:12.960Z,96.90
2018-09-23T07:28:41.412Z,96.90
2018-09-23T07:31:09.827Z,96.90
2018-09-23T07:33:38.065Z,96.80
2018-09-23T07:36:06.302Z,96.80
2018-09-23T07:38:34.948Z,96.80
2018-09-23T07:41:03.215Z,96.80
2018-09-23T07:43:32.402Z,96.90
2018-09-23T07:46:00.665Z,96.70
2018-09-23T07:48:28.866Z,96.70
2018-09-23T07:50:57.343Z,96.60
2018-09-23T07:53:25.649Z,96.50
2018-09-23T07:55:53.899Z,96.40
2018-09-23T07:58:22.158Z,96.30
2018-09-23T08:00:50.490Z,96.00
2018-09-23T08:03:18.831Z,96.40
2018-09-23T08:05:47.106Z,96.70
2018-09-23T08:08:15.406Z,96.30
2018-09-23T08:10:44.808Z,96.30
2018-09-23T08:13:13.121Z,95.90
2018-09-23T08:15:41.379Z,96.10
2018-09-23T08:18:09.582Z,95.60
2018-09-23T08:20:38.091Z,95.80
2018-09-23T08:23:07.402Z,95.50
2018-09-23T08:25:35.829Z,95.40
2018-09-23T08:28:04.155Z,95.00
2018-09-23T08:30:32.368Z,95.60
2018-09-23T08:33:00.690Z,95.50
2018-09-23T08:35:28.913Z,95.50
2018-09-23T08:37:57.201Z,95.60
2018-09-23T08:40:25.461Z,95.70
2018-09-23T08:42:53.898Z,95.90
2018-09-23T08:45:25.044Z,95.90
2018-09-23T08:47:53.573Z,95.80
2018-09-23T08:50:22.469Z,95.90
2018-09-23T08:52:50.704Z,95.90
2018-09-23T08:55:19.634Z,95.90
2018-09-23T08:57:48.928Z,96.00
2018-09-23T09:00:17.148Z,96.20
2018-09-23T09:02:45.514Z,96.10
2018-09-23T09:05:13.826Z,96.00
2018-09-23T09:07:42.131Z,95.80
2018-09-23T09:10:10.768Z,95.80
2018-09-23T09:12:39.001Z,95.80
2018-09-23T09:15:07.336Z,96.10
2018-09-23T09:17:35.618Z,96.10
2018-09-23T09:20:04.114Z,95.70
2018-09-23T09:22:32.518Z,95.80
2018-09-23T09:25:00.813Z,95.70
2018-09-23T09:27:29.100Z,95.60
2018-09-23T09:29:57.358Z,95.80
2018-09-23T09:32:25.735Z,95.90
2018-09-23T09:34:53.993Z,95.90
2018-09-23T09:37:22.283Z,96.20
2018-09-23T09:39:50.560Z,96.60
2018-09-23T09:42:18.851Z,96.20
2018-09-23T09:44:47.095Z,96.00
2018-09-23T09:47:15.691Z,96.20
2018-09-23T09:49:43.982Z,95.90
2018-09-23T09:52:12.267Z,95.80
2018-09-23T09:54:40.532Z,95.80
2018-09-23T09:57:08.747Z,95.30
2018-09-23T09:59:36.991Z,95.80
2018-09-23T10:02:05.618Z,95.40
2018-09-23T10:04:35.331Z,95.20
2018-09-23T10:07:03.657Z,95.50
2018-09-23T10:09:31.940Z,95.60
2018-09-23T10:12:00.285Z,95.20
2018-09-23T10:14:28.572Z,95.50
2018-09-23T10:16:57.615Z,95.60
2018-09-23T10:19:25.867Z,95.10
2018-09-23T10:21:54.330Z,95.70
2018-09-23T10:24:22.589Z,95.80
2018-09-23T10:26:51.004Z,95.50
2018-09-23T10:29:19.267Z,95.60
2018-09-23T10:31:48.142Z,95.50
2018-09-23T10:34:16.497Z,95.70
2018-09-23T10:36:44.776Z,96.10
2018-09-23T10:39:13.257Z,96.10
2018-09-23T10:41:42.542Z,96.20
2018-09-23T10:44:10.878Z,96.40
2018-09-23T10:46:39.182Z,96.50
2018-09-23T10:49:07.654Z,96.80
2018-09-23T10:51:36.234Z,96.70
2018-09-23T10:54:05.523Z,96.70
2018-09-23T10:56:33.995Z,96.80
2018-09-23T10:59:02.278Z,96.80
2018-09-23T11:01:30.645Z,97.30
2018-09-23T11:03:59.084Z,97.50
2018-09-23T11:11:20.545Z,97.30
2018-09-23T11:13:48.770Z,97.30
2018-09-23T11:16:17.066Z,97.50
2018-09-23T11:18:45.373Z,97.70
2018-09-23T11:21:13.744Z,97.80
2018-09-23T11:23:44.133Z,97.80
2018-09-23T11:26:12.360Z,97.80
2018-09-23T11:28:40.772Z,97.90
2018-09-23T11:31:09.097Z,98.00
2018-09-23T11:33:37.359Z,97.80
2018-09-23T11:36:05.754Z,97.70
2018-09-23T11:38:33.996Z,97.80
2018-09-23T11:41:02.596Z,97.80
2018-09-23T11:43:30.885Z,97.60
2018-09-23T11:50:54.722Z,96.40
2018-09-23T11:53:24.260Z,96.40
2018-09-23T11:55:52.524Z,96.70
2018-09-23T11:58:20.930Z,96.80
2018-09-23T12:00:49.630Z,96.70
2018-09-23T12:03:17.880Z,97.00
2018-09-23T12:05:46.417Z,97.20
2018-09-23T12:08:15.683Z,97.40
2018-09-23T12:10:44.133Z,97.40
2018-09-23T12:13:12.539Z,97.30
2018-09-23T12:15:41.049Z,97.30
2018-09-23T12:18:09.434Z,97.10
2018-09-23T12:20:37.810Z,97.40
2018-09-23T12:23:06.262Z,97.60
2018-09-23T12:25:37.035Z,97.50
2018-09-23T12:28:05.701Z,97.80
2018-09-23T12:30:34.639Z,98.10
2018-09-23T12:33:03.394Z,97.60
2018-09-23T12:35:31.875Z,97.80
2018-09-23T12:38:00.122Z,97.80
2018-09-23T12:40:28.451Z,97.60
2018-09-23T12:42:57.023Z,97.90
2018-09-23T12:45:25.384Z,97.30
2018-09-23T12:47:54.559Z,97.00
2018-09-23T12:50:22.821Z,97.30
2018-09-23T12:52:51.537Z,96.90
2018-09-23T12:55:19.959Z,97.40
2018-09-23T12:57:48.212Z,97.30
2018-09-23T13:00:16.514Z,97.00
2018-09-23T13:02:44.785Z,96.80
2018-09-23T13:05:13.138Z,96.90
2018-09-23T13:07:41.991Z,96.50
2018-09-23T13:10:10.436Z,96.80
2018-09-23T13:12:46.386Z,96.80
2018-09-23T13:15:19.743Z,97.10
2018-09-23T13:17:51.042Z,97.10
2018-09-23T13:20:23.674Z,97.40
2018-09-23T13:22:53.939Z,97.40
2018-09-23T13:25:25.774Z,97.20
2018-09-23T13:27:57.711Z,96.90
2018-09-23T13:30:30.558Z,96.80
2018-09-23T13:33:01.470Z,96.70
2018-09-23T13:35:37.912Z,96.60
2018-09-23T13:38:09.089Z,96.40
2018-09-23T13:45:36.260Z,97.50
2018-09-23T13:48:06.812Z,96.70
2018-09-23T13:50:41.178Z,97.10
2018-09-23T13:53:15.910Z,97.30
2018-09-23T13:55:46.832Z,96.70
2018-09-23T13:58:15.180Z,96.60
2018-09-23T14:00:43.460Z,96.50
2018-09-23T14:03:11.796Z,96.30
2018-09-23T14:05:40.039Z,95.90
2018-09-23T14:08:08.368Z,96.20
2018-09-23T14:10:36.678Z,95.80
2018-09-23T14:13:05.017Z,95.80
2018-09-23T14:15:33.341Z,96.20
2018-09-23T14:18:01.593Z,96.10
2018-09-23T14:20:30.009Z,96.50
2018-09-23T14:22:58.314Z,96.70
2018-09-23T14:25:26.726Z,97.10
2018-09-23T14:27:55.076Z,96.80
2018-09-23T14:30:23.477Z,96.50
2018-09-23T14:32:51.780Z,96.70
2018-09-23T14:35:20.096Z,96.40
2018-09-23T14:37:48.397Z,96.50
2018-09-23T14:40:16.681Z,96.60
2018-09-23T14:42:44.983Z,96.90
2018-09-23T14:45:13.255Z,96.50
2018-09-23T14:47:43.076Z,96.80
2018-09-23T14:50:11.366Z,96.70
2018-09-23T14:52:39.619Z,96.50
2018-09-23T14:55:08.962Z,96.60
2018-09-23T14:57:37.194Z,96.40
2018-09-23T15:00:05.743Z,95.80
2018-09-23T15:02:34.023Z,96.10
2018-09-23T15:05:02.518Z,96.60
2018-09-23T15:07:30.717Z,97.10
2018-09-23T15:09:59.287Z,96.60
2018-09-23T15:12:27.590Z,96.70
2018-09-23T15:14:55.870Z,96.80
2018-09-23T15:17:24.152Z,96.70
2018-09-23T15:19:52.400Z,96.70
2018-09-23T15:22:20.757Z,96.40
2018-09-23T15:24:48.994Z,95.80
2018-09-23T15:27:17.914Z,95.50
2018-09-23T15:29:47.319Z,95.40
2018-09-23T15:32:15.659Z,95.60
2018-09-23T15:34:43.945Z,95.20
2018-09-23T15:37:13.175Z,95.10
2018-09-23T15:39:41.479Z,95.10
2018-09-23T15:42:09.809Z,94.90
2018-09-23T15:44:38.144Z,95.50
2018-09-23T15:47:06.653Z,95.50
2018-09-23T15:49:36.566Z,94.90
2018-09-23T15:52:04.956Z,95.40
2018-09-23T15:54:33.822Z,95.20
2018-09-23T15:57:02.208Z,95.30
2018-09-23T15:59:30.678Z,96.00
2018-09-23T16:01:58.997Z,95.70
2018-09-23T16:04:27.438Z,96.20
2018-09-23T16:06:56.217Z,96.00
2018-09-23T16:09:24.801Z,95.60
2018-09-23T16:14:01.811Z,95.90
2018-09-23T16:16:30.106Z,95.20
2018-09-23T16:23:51.203Z,94.80
2018-09-23T16:26:19.584Z,94.80
2018-09-23T16:28:48.573Z,94.80
2018-09-23T16:31:16.900Z,95.30
2018-09-23T16:33:45.274Z,95.00
2018-09-23T16:41:06.709Z,95.10
2018-09-23T16:43:35.699Z,95.20
2018-09-23T16:46:05.196Z,95.10
2018-09-23T16:48:33.589Z,95.40
2018-09-23T16:51:03.395Z,97.80
2018-09-23T16:53:32.661Z,99.10
2018-09-23T16:56:02.546Z,99.10
2018-09-23T16:58:31.746Z,98.00
2018-09-23T17:01:00.369Z,97.20
2018-09-23T17:03:28.809Z,97.40
2018-09-23T17:05:57.088Z,97.10
2018-09-23T17:08:26.512Z,96.80
2018-09-23T17:10:54.800Z,96.70
2018-09-23T17:13:23.154Z,97.50
2018-09-23T17:15:51.436Z,96.70
2018-09-23T17:18:19.721Z,96.60
2018-09-23T17:20:47.935Z,98.80
2018-09-23T17:23:16.186Z,96.20
2018-09-23T17:25:44.906Z,96.40
2018-09-23T17:28:14.125Z,96.80
2018-09-23T17:30:42.286Z,96.30
2018-09-23T17:33:10.559Z,96.90
2018-09-23T17:35:38.932Z,95.90
2018-09-23T17:38:07.786Z,96.60
2018-09-23T17:40:37.268Z,96.50
2018-09-23T17:43:06.355Z,97.50
2018-09-23T17:45:34.663Z,97.50
2018-09-23T17:48:03.273Z,97.30
2018-09-23T17:50:31.495Z,96.60
2018-09-23T17:53:00.085Z,96.60
2018-09-23T17:55:28.470Z,96.90
2018-09-23T17:57:56.860Z,97.60
2018-09-23T18:00:25.676Z,98.00
2018-09-23T18:02:53.967Z,98.00
2018-09-23T18:05:22.509Z,98.00
2018-09-23T18:07:50.913Z,97.80
2018-09-23T18:10:19.139Z,98.00
2018-09-23T18:12:47.604Z,98.30
2018-09-23T18:15:16.074Z,98.30
2018-09-23T18:17:44.507Z,98.70
2018-09-23T18:20:12.817Z,98.40
2018-09-23T18:24:03.971Z,98.20
2018-09-23T18:26:32.430Z,98.20
2018-09-23T18:29:00.635Z,98.40
2018-09-23T18:31:29.072Z,98.20
2018-09-23T18:33:57.444Z,98.60
2018-09-23T18:36:25.815Z,98.60
2018-09-23T18:38:54.910Z,98.30
2018-09-23T18:41:23.259Z,98.50
2018-09-23T18:43:51.571Z,98.40
2018-09-23T18:46:19.879Z,98.10
2018-09-23T18:48:48.132Z,98.20
2018-09-23T18:51:16.769Z,98.20
2018-09-23T18:53:50.440Z,98.50
2018-09-23T18:56:22.447Z,98.40
2018-09-23T18:58:50.767Z,98.10
2018-09-23T19:01:18.961Z,98.30
2018-09-23T19:03:47.322Z,97.90
2018-09-23T19:06:15.514Z,98.40
2018-09-23T19:08:43.901Z,98.10
2018-09-23T19:11:12.227Z,98.70
2018-09-23T19:13:45.864Z,99.00
2018-09-23T19:16:19.496Z,98.50
2018-09-23T19:18:47.744Z,98.50
2018-09-23T19:21:16.037Z,98.70
2018-09-23T19:23:44.691Z,98.80
2018-09-23T19:26:12.874Z,98.70
2018-09-23T19:28:41.137Z,98.80
2018-09-23T19:31:09.307Z,98.80
2018-09-23T19:33:37.577Z,98.90
2018-09-23T19:36:06.310Z,99.00
2018-09-23T19:38:34.779Z,99.10
2018-09-23T19:41:03.126Z,98.90
2018-09-23T19:43:31.531Z,98.90
2018-09-23T19:45:59.845Z,98.70
2018-09-23T19:48:28.591Z,98.80
2018-09-23T19:55:50.555Z,98.60
2018-09-23T19:58:18.832Z,98.90
2018-09-23T20:00:47.057Z,99.00
2018-09-23T20:03:15.434Z,98.80
2018-09-23T20:05:43.714Z,98.70
2018-09-23T20:08:13.294Z,98.70
2018-09-23T20:10:41.593Z,98.90
2018-09-23T20:13:09.933Z,99.30
2018-09-23T20:15:38.251Z,98.80
2018-09-23T20:18:06.482Z,98.70
2018-09-23T20:20:34.780Z,98.30
2018-09-23T20:23:03.068Z,98.70
2018-09-23T20:25:31.324Z,98.80
2018-09-23T20:27:59.564Z,98.60
2018-09-23T20:35:20.741Z,98.30
2018-09-23T20:37:48.995Z,98.50
2018-09-23T20:40:17.239Z,98.50
2018-09-23T20:42:45.458Z,98.70
2018-09-23T20:45:13.723Z,98.90
2018-09-23T20:47:43.151Z,99.50
2018-09-23T20:50:11.440Z,98.90
2018-09-23T20:52:39.662Z,99.00
2018-09-23T20:55:07.957Z,99.00
2018-09-23T20:57:36.219Z,99.20
2018-09-23T21:00:05.603Z,98.90
2018-09-23T21:02:33.926Z,99.00
2018-09-23T21:05:02.252Z,99.00
2018-09-23T21:07:30.508Z,99.00
2018-09-23T21:09:58.723Z,99.00
2018-09-23T21:12:26.944Z,99.00
2018-09-23T21:14:55.437Z,99.30
2018-09-23T21:17:24.716Z,99.40
2018-09-23T21:19:53.709Z,99.20
2018-09-23T21:22:22.521Z,99.20
2018-09-23T21:24:50.802Z,99.20
2018-09-23T21:27:19.034Z,99.10
2018-09-23T21:29:47.234Z,99.40
2018-09-23T21:32:15.710Z,99.30
2018-09-23T21:34:44.019Z,99.30
2018-09-23T21:37:12.312Z,99.20
2018-09-23T21:39:41.966Z,99.50
2018-09-23T21:42:10.357Z,99.50
2018-09-23T21:44:38.862Z,99.50
2018-09-23T21:47:07.242Z,99.30
2018-09-23T21:49:36.315Z,99.60
2018-09-23T21:52:04.768Z,99.60
2018-09-23T21:54:33.196Z,99.90
2018-09-23T21:57:01.427Z,99.90
2018-09-23T21:59:29.694Z,99.90
2018-09-23T22:01:57.959Z,99.90
2018-09-23T22:04:26.198Z,99.90
2018-09-23T22:06:55.579Z,99.90
2018-09-23T22:09:23.790Z,99.90
2018-09-23T22:14:07.547Z,99.90
2018-09-23T22:16:35.755Z,99.90
2018-09-23T22:19:03.992Z,99.90
2018-09-23T22:21:32.266Z,99.90
2018-09-23T22:24:00.443Z,99.90
2018-09-23T22:26:28.698Z,99.90
2018-09-23T22:28:56.918Z,99.90
2018-09-23T22:31:25.155Z,99.90
2018-09-23T22:33:53.483Z,99.90
2018-09-23T22:36:21.889Z,99.90
2018-09-23T22:38:50.139Z,99.90
2018-09-23T22:46:11.480Z,99.90
2018-09-23T22:48:39.712Z,99.90
2018-09-23T22:51:07.905Z,99.90
2018-09-23T22:53:36.058Z,99.90
2018-09-23T22:56:04.686Z,99.90
2018-09-23T23:03:25.530Z,99.90
2018-09-23T23:05:53.715Z,99.90
2018-09-23T23:08:21.900Z,99.90
2018-09-23T23:10:50.333Z,99.90
2018-09-23T23:13:18.559Z,99.90
2018-09-23T23:15:48.094Z,99.90
2018-09-23T23:18:17.103Z,99.90
2018-09-23T23:20:45.293Z,99.90
2018-09-23T23:23:13.563Z,99.90
2018-09-23T23:25:41.775Z,99.90
2018-09-23T23:28:09.985Z,99.90
2018-09-23T23:30:38.317Z,99.90
2018-09-23T23:33:06.552Z,99.90
2018-09-23T23:35:34.772Z,99.90
2018-09-23T23:38:03.054Z,99.90
2018-09-23T23:40:31.252Z,99.90
2018-09-23T23:42:59.469Z,99.90
2018-09-23T23:45:27.636Z,99.90
2018-09-23T23:47:55.894Z,99.90
2018-09-23T23:50:24.342Z,99.90
2018-09-23T23:52:52.884Z,99.90
2018-09-23T23:55:22.395Z,99.90
2018-09-23T23:57:50.596Z,99.90
